.
WxDataArchive / Data Records for 2014-05-04
2014-05-03 May 2014 2014-05-05

Data Records for Sunday, 04 May 2014

Time	Temp	Chill	HIndex	Humid	Dewpt	 Wind 	HiWind	WindDir	Rain 	Barom
-----	----	-----	------	-----	-----	------	------	-------	-----	-----
00:00	56.0	56.0	56.0	49	37.1	0	1	270	0.00	29.826 
00:05	56.2	56.2	56.2	48	36.8	0	0	---	0.00	29.826 
00:10	56.0	56.0	56.0	50	37.6	0	0	---	0.00	29.826 
00:15	55.4	55.4	55.4	51	37.6	0	0	---	0.00	29.827 
00:20	54.8	54.8	54.8	52	37.5	0	0	---	0.00	29.827 
00:25	54.4	54.4	54.4	54	38.1	0	0	---	0.00	29.827 
00:30	53.8	53.8	53.8	54	37.5	0	0	---	0.00	29.830 
00:35	53.2	53.2	53.2	55	37.5	0	0	---	0.00	29.830 
00:40	52.9	52.9	52.9	56	37.6	0	0	---	0.00	29.830 
00:45	52.6	52.6	52.6	57	37.8	0	0	---	0.00	29.828 
00:50	52.3	52.3	52.3	58	38.0	0	0	---	0.00	29.828 
00:55	52.0	52.0	52.0	60	38.5	0	1	270	0.00	29.828 
01:00	51.9	51.9	51.9	61	38.9	0	0	---	0.00	29.835 
01:05	51.7	51.7	51.7	62	39.1	0	0	---	0.00	29.835 
01:10	51.7	51.7	51.7	61	38.7	0	0	---	0.00	29.835 
01:15	51.9	51.9	51.9	60	38.5	0	0	---	0.00	29.836 
01:20	52.0	52.0	52.0	59	38.1	0	0	---	0.00	29.836 
01:25	52.3	52.3	52.3	58	38.0	0	0	---	0.00	29.836 
01:30	52.6	52.6	52.6	58	38.2	0	0	---	0.00	29.838 
01:35	52.5	52.5	52.5	58	38.2	0	0	---	0.00	29.838 
01:40	52.3	52.3	52.3	59	38.4	0	0	---	0.00	29.838 
01:45	52.0	52.0	52.0	59	38.1	0	0	---	0.00	29.829 
01:50	51.7	51.7	51.7	60	38.3	0	0	---	0.00	29.829 
01:55	51.3	51.3	51.3	60	37.9	0	0	---	0.00	29.829 
02:00	51.1	51.1	51.1	60	37.7	0	0	---	0.00	29.827 
02:05	51.0	51.0	51.0	60	37.6	0	0	---	0.00	29.827 
02:10	50.8	50.8	50.8	62	38.3	0	0	---	0.00	29.827 
02:15	50.8	50.8	50.8	62	38.3	0	0	---	0.00	29.821 
02:20	50.8	50.8	50.8	62	38.3	0	0	---	0.00	29.821 
02:25	50.8	50.8	50.8	62	38.3	0	0	---	0.00	29.821 
02:30	51.0	51.0	51.0	61	38.0	0	0	---	0.00	29.818 
02:35	51.3	51.3	51.3	61	38.3	0	0	---	0.00	29.818 
02:40	51.7	51.7	51.7	59	37.8	0	1	270	0.00	29.818 
02:45	52.0	52.0	52.0	59	38.1	0	0	---	0.00	29.817 
02:50	52.3	52.3	52.3	59	38.4	0	0	---	0.00	29.817 
02:55	52.5	52.5	52.5	58	38.2	0	0	---	0.00	29.817 
03:00	52.5	52.5	52.5	58	38.2	0	1	270	0.00	29.816 
03:05	52.8	52.8	52.8	58	38.4	0	1	270	0.00	29.816 
03:10	52.9	52.9	52.9	57	38.1	0	1	270	0.00	29.816 
03:15	53.2	53.2	53.2	58	38.8	0	0	---	0.00	29.817 
03:20	53.2	53.2	53.2	57	38.4	0	1	270	0.00	29.817 
03:25	53.3	53.3	53.3	58	38.9	0	1	270	0.00	29.817 
03:30	53.3	53.3	53.3	57	38.5	0	1	270	0.00	29.820 
03:35	53.5	53.5	53.5	57	38.6	0	1	270	0.00	29.820 
03:40	53.6	53.6	53.6	57	38.7	0	1	270	0.00	29.820 
03:45	53.8	53.8	53.8	56	38.5	0	1	270	0.00	29.826 
03:50	54.1	54.1	54.1	55	38.3	0	1	270	0.00	29.826 
03:55	54.2	54.2	54.2	55	38.4	0	2	270	0.00	29.826 
04:00	54.2	54.2	54.2	56	38.8	0	1	270	0.00	29.833 
04:05	54.1	54.1	54.1	56	38.8	0	1	270	0.00	29.833 
04:10	53.9	53.9	53.9	57	39.0	0	1	270	0.00	29.833 
04:15	53.9	53.9	53.9	57	39.0	0	1	270	0.00	29.819 
04:20	53.8	53.8	53.8	57	38.9	0	1	270	0.00	29.819 
04:25	53.6	53.6	53.6	57	38.7	0	1	270	0.00	29.819 
04:30	53.6	53.6	53.6	57	38.7	0	1	270	0.00	29.823 
04:35	53.6	53.6	53.6	57	38.7	0	1	270	0.00	29.823 
04:40	53.5	53.5	53.5	57	38.6	0	1	270	0.00	29.823 
04:45	53.6	53.6	53.6	57	38.7	0	1	270	0.00	29.821 
04:50	53.5	53.5	53.5	58	39.1	0	1	270	0.00	29.821 
04:55	53.5	53.5	53.5	58	39.1	0	1	270	0.00	29.821 
05:00	53.3	53.3	53.3	58	38.9	0	2	270	0.00	29.823 
05:05	53.2	53.2	53.2	59	39.2	0	1	270	0.00	29.823 
05:10	53.2	53.2	53.2	59	39.2	0	1	270	0.00	29.823 
05:15	53.1	53.1	53.1	59	39.2	0	0	---	0.00	29.822 
05:20	52.9	52.9	52.9	59	39.0	0	2	270	0.00	29.822 
05:25	52.9	52.9	52.9	59	39.0	0	1	270	0.00	29.822 
05:30	52.8	52.8	52.8	59	38.9	0	1	270	0.00	29.826 
05:35	52.6	52.6	52.6	59	38.7	0	1	270	0.00	29.826 
05:40	52.5	52.5	52.5	60	39.0	0	1	270	0.00	29.826 
05:45	52.2	52.2	52.2	60	38.7	0	1	270	0.00	29.835 
05:50	52.0	52.0	52.0	61	39.0	0	1	270	0.00	29.835 
05:55	51.9	51.9	51.9	62	39.3	0	0	---	0.00	29.835 
06:00	51.6	51.6	51.6	62	39.0	0	1	270	0.00	29.836 
06:05	51.6	51.6	51.6	62	39.0	0	1	270	0.00	29.836 
06:10	51.4	51.4	51.4	62	38.8	0	1	270	0.00	29.836 
06:15	51.3	51.3	51.3	63	39.1	0	1	270	0.00	29.838 
06:20	51.3	51.3	51.3	63	39.1	0	1	270	0.00	29.838 
06:25	51.1	51.1	51.1	64	39.4	0	1	270	0.00	29.838 
06:30	51.1	51.1	51.1	63	38.9	0	1	270	0.00	29.841 
06:35	51.1	51.1	51.1	63	38.9	0	1	270	0.00	29.841 
06:40	51.1	51.1	51.1	62	38.5	0	1	270	0.00	29.841 
06:45	51.1	51.1	51.1	62	38.5	0	1	270	0.00	29.852 
06:50	51.0	51.0	51.0	63	38.9	0	0	---	0.00	29.852 
06:55	50.7	50.7	50.7	63	38.6	0	1	270	0.00	29.852 
07:00	50.5	50.5	50.5	64	38.8	0	1	270	0.00	29.860 
07:05	50.4	50.4	50.4	65	39.1	0	1	270	0.00	29.860 
07:10	50.4	50.4	50.4	65	39.1	0	0	---	0.00	29.860 
07:15	50.4	50.4	50.4	65	39.1	0	1	270	0.00	29.869 
07:20	50.4	50.4	50.4	65	39.1	0	1	270	0.00	29.869 
07:25	50.5	50.5	50.5	65	39.2	0	1	270	0.00	29.869 
07:30	50.7	50.7	50.7	65	39.4	0	3	270	0.00	29.883 
07:35	51.0	51.0	51.0	64	39.3	0	2	270	0.00	29.883 
07:40	51.3	51.3	51.3	63	39.1	1	3	292	0.00	29.883 
07:45	51.7	51.7	51.7	62	39.1	1	3	292	0.00	29.884 
07:50	52.3	52.3	52.3	60	38.8	2	3	292	0.00	29.884 
07:55	52.8	52.8	52.8	58	38.4	1	4	292	0.00	29.884 
08:00	53.2	53.2	53.2	57	38.4	1	4	292	0.00	29.888 
08:05	53.5	53.5	53.5	55	37.7	2	6	270	0.00	29.888 
08:10	53.6	53.6	53.6	54	37.4	2	6	270	0.00	29.888 
08:15	53.9	53.9	53.9	53	37.2	2	4	270	0.00	29.886 
08:20	54.2	54.2	54.2	52	37.0	2	5	270	0.00	29.886 
08:25	54.4	54.4	54.4	52	37.1	2	5	270	0.00	29.886 
08:30	54.5	54.5	54.5	50	36.2	2	5	315	0.00	29.887 
08:35	55.0	55.0	55.0	50	36.7	1	4	315	0.00	29.887 
08:40	55.1	55.1	55.1	50	36.8	2	5	270	0.00	29.887 
08:45	55.3	55.3	55.3	50	37.0	2	4	248	0.00	29.892 
08:50	55.6	55.6	55.6	49	36.7	2	3	292	0.00	29.892 
08:55	55.7	55.7	55.7	48	36.3	2	7	292	0.00	29.892 
09:00	55.9	55.9	55.9	48	36.5	2	6	315	0.00	29.894 
09:05	56.2	56.2	56.2	47	36.2	2	5	270	0.00	29.894 
09:10	56.2	56.2	56.2	47	36.2	3	6	270	0.00	29.894 
09:15	56.2	56.2	56.2	47	36.2	3	5	270	0.00	29.904 
09:20	56.3	56.3	56.3	46	35.8	4	7	270	0.00	29.904 
09:25	56.2	56.2	56.2	46	35.7	3	6	270	0.00	29.904 
09:30	56.3	56.3	56.3	46	35.8	4	10	270	0.00	29.907 
09:35	56.3	56.3	56.3	44	34.7	4	9	292	0.00	29.907 
09:40	56.6	56.6	56.6	45	35.5	3	6	315	0.00	29.907 
09:45	56.7	56.7	56.7	45	35.6	3	7	315	0.00	29.909 
09:50	56.9	56.9	56.9	43	34.6	3	9	270	0.00	29.909 
09:55	56.9	56.9	56.9	44	35.2	3	6	315	0.00	29.909 
10:00	57.0	57.0	57.0	45	35.9	3	6	270	0.00	29.915 
10:05	57.0	57.0	57.0	44	35.3	3	6	292	0.00	29.915 
10:10	57.2	57.2	57.2	45	36.1	3	5	315	0.00	29.915 
10:15	57.2	57.2	57.2	42	34.3	3	8	292	0.00	29.920 
10:20	57.3	57.3	57.3	42	34.4	3	9	315	0.00	29.920 
10:25	57.5	57.5	57.5	41	34.0	3	9	292	0.00	29.920 
10:30	57.2	57.2	57.2	41	33.7	4	12	270	0.00	29.924 
10:35	57.0	57.0	57.0	40	32.9	3	6	292	0.00	29.924 
10:40	56.9	56.9	56.9	40	32.8	3	8	315	0.00	29.924 
10:45	56.5	56.5	56.5	41	33.1	4	10	270	0.00	29.931 
10:50	56.5	56.5	56.5	41	33.1	5	10	270	0.00	29.931 
10:55	57.0	57.0	57.0	41	33.5	4	11	292	0.00	29.931 
11:00	57.3	57.3	57.3	43	35.0	4	10	292	0.00	29.938 
11:05	57.6	57.6	57.6	42	34.7	3	9	315	0.00	29.938 
11:10	57.6	57.6	57.6	40	33.5	5	11	338	0.00	29.938 
11:15	57.6	57.6	57.6	41	34.1	4	10	270	0.00	29.937 
11:20	57.8	57.8	57.8	41	34.3	4	11	292	0.00	29.937 
11:25	57.6	57.6	57.6	40	33.5	4	10	270	0.00	29.937 
11:30	57.8	57.8	57.8	41	34.3	3	6	292	0.00	29.948 
11:35	58.0	58.0	58.0	39	33.2	4	10	315	0.00	29.948 
11:40	57.3	57.3	57.3	42	34.4	4	10	292	0.00	29.948 
11:45	57.8	57.8	57.8	39	33.0	4	14	315	0.00	29.958 
11:50	57.2	57.2	57.2	38	31.8	5	14	292	0.00	29.958 
11:55	56.9	56.9	56.9	39	32.2	4	12	292	0.00	29.958 
12:00	56.9	56.9	56.9	38	31.6	4	8	292	0.00	29.960 
12:05	56.7	56.7	56.7	37	30.7	4	13	292	0.00	29.960 
12:10	56.5	56.5	56.5	35	29.2	4	11	338	0.00	29.960 
12:15	56.6	56.6	56.6	35	29.3	4	10	315	0.00	29.969 
12:20	56.6	56.6	56.6	35	29.3	4	10	338	0.00	29.969 
12:25	57.0	57.0	57.0	38	31.6	3	7	338	0.00	29.969 
12:30	57.0	57.0	57.0	34	28.9	4	7	338	0.00	29.972 
12:35	56.3	56.3	56.3	32	26.8	5	10	292	0.00	29.972 
12:40	56.3	56.3	56.3	33	27.6	5	14	292	0.00	29.972 
12:45	56.7	56.7	56.7	34	28.7	4	10	315	0.00	29.972 
12:50	56.5	56.5	56.5	32	27.0	4	9	292	0.00	29.972 
12:55	56.3	56.3	56.3	32	26.8	3	10	315	0.00	29.972 
13:00	55.9	55.9	55.9	34	27.9	4	12	315	0.00	29.972 
13:05	56.0	56.0	56.0	35	28.7	3	10	292	0.00	29.972 
13:10	56.0	56.0	56.0	35	28.7	4	12	315	0.00	29.972 
13:15	56.2	56.2	56.2	35	28.9	4	11	270	0.00	29.981 
13:20	55.9	55.9	55.9	36	29.3	5	10	292	0.00	29.981 
13:25	55.7	55.7	55.7	36	29.2	3	7	270	0.00	29.981 
13:30	55.6	55.6	55.6	35	28.4	3	9	292	0.00	29.976 
13:35	55.6	55.6	55.6	36	29.1	4	10	338	0.00	29.976 
13:40	55.9	55.9	55.9	35	28.7	4	11	315	0.00	29.976 
13:45	55.7	55.7	55.7	34	27.8	3	8	338	0.00	29.987 
13:50	56.0	56.0	56.0	37	30.1	3	10	292	0.00	29.987 
13:55	56.5	56.5	56.5	34	28.5	3	7	292	0.00	29.987 
14:00	56.3	56.3	56.3	35	29.0	3	9	315	0.00	29.986 
14:05	55.7	55.7	55.7	33	27.0	4	8	315	0.00	29.986 
14:10	55.3	55.3	55.3	32	26.0	4	9	270	0.00	29.986 
14:15	54.8	54.8	54.8	31	24.8	3	7	315	0.00	29.990 
14:20	54.8	54.8	54.8	30	24.0	3	7	270	0.00	29.990 
14:25	54.5	54.5	54.5	29	22.9	4	7	338	0.00	29.990 
14:30	54.2	54.2	54.2	31	24.2	3	7	315	0.00	29.987 
14:35	54.2	54.2	54.2	31	24.2	3	6	292	0.00	29.987 
14:40	54.4	54.4	54.4	28	22.0	3	7	292	0.00	29.987 
14:45	54.5	54.5	54.5	31	24.5	2	5	315	0.00	30.000 
14:50	54.7	54.7	54.7	32	25.4	3	6	270	0.00	30.000 
14:55	54.8	54.8	54.8	27	21.5	3	7	270	0.00	30.000 
15:00	54.8	54.8	54.8	27	21.5	3	6	270	0.00	30.000 
15:05	54.7	54.7	54.7	28	22.2	3	6	292	0.00	30.000 
15:10	54.5	54.5	54.5	28	22.1	3	5	292	0.00	30.000 
15:15	54.4	54.4	54.4	28	22.0	3	6	292	0.00	30.001 
15:20	54.4	54.4	54.4	27	21.1	3	7	270	0.00	30.001 
15:25	54.5	54.5	54.5	28	22.1	3	7	338	0.00	30.001 
15:30	55.0	55.0	55.0	28	22.5	2	5	338	0.00	30.009 
15:35	55.1	55.1	55.1	27	21.7	3	9	292	0.00	30.009 
15:40	55.1	55.1	55.1	28	22.6	2	9	270	0.00	30.009 
15:45	55.1	55.1	55.1	27	21.7	3	7	315	0.00	30.013 
15:50	55.0	55.0	55.0	28	22.5	3	6	292	0.00	30.013 
15:55	54.8	54.8	54.8	27	21.5	2	7	338	0.00	30.013 
16:00	55.3	55.3	55.3	28	22.8	2	4	292	0.00	30.012 
16:05	55.7	55.7	55.7	28	23.1	2	5	315	0.00	30.012 
16:10	56.0	56.0	56.0	27	22.5	2	5	0	0.00	30.012 
16:15	55.6	55.6	55.6	28	23.0	3	7	292	0.00	30.002 
16:20	55.1	55.1	55.1	27	21.7	2	7	270	0.00	30.002 
16:25	55.3	55.3	55.3	30	24.4	1	4	270	0.00	30.002 
16:30	55.3	55.3	55.3	27	21.9	2	5	270	0.00	30.014 
16:35	55.3	55.3	55.3	26	21.0	2	6	292	0.00	30.014 
16:40	55.1	55.1	55.1	28	22.6	2	5	292	0.00	30.014 
16:45	54.7	54.7	54.7	27	21.4	2	5	315	0.00	30.011 
16:50	54.4	54.4	54.4	27	21.1	2	5	315	0.00	30.011 
16:55	54.5	54.5	54.5	28	22.1	1	6	315	0.00	30.011 
17:00	55.4	55.4	55.4	28	22.8	2	6	292	0.00	30.003 
17:05	55.9	55.9	55.9	27	22.4	3	5	315	0.00	30.003 
17:10	56.2	56.2	56.2	28	23.5	2	6	338	0.00	30.003 
17:15	55.9	55.9	55.9	26	21.5	3	7	270	0.00	30.007 
17:20	55.4	55.4	55.4	28	22.8	1	5	338	0.00	30.007 
17:25	55.6	55.6	55.6	27	22.2	2	4	315	0.00	30.007 
17:30	55.7	55.7	55.7	27	22.2	2	5	338	0.00	30.002 
17:35	55.6	55.6	55.6	27	22.2	2	4	270	0.00	30.002 
17:40	55.6	55.6	55.6	29	23.9	2	4	270	0.00	30.002 
17:45	55.1	55.1	55.1	28	22.6	1	4	338	0.00	30.008 
17:50	54.7	54.7	54.7	28	22.2	1	2	315	0.00	30.008 
17:55	54.5	54.5	54.5	27	21.2	1	5	292	0.00	30.008 
18:00	55.0	55.0	55.0	28	22.5	1	3	315	0.00	30.005 
18:05	55.3	55.3	55.3	29	23.6	1	2	338	0.00	30.005 
18:10	55.7	55.7	55.7	28	23.1	1	4	338	0.00	30.005 
18:15	55.7	55.7	55.7	29	23.9	1	4	315	0.00	30.009 
18:20	55.4	55.4	55.4	31	25.3	1	4	338	0.00	30.009 
18:25	55.6	55.6	55.6	30	24.7	0	4	338	0.00	30.009 
18:30	55.3	55.3	55.3	30	24.4	0	4	338	0.00	30.002 
18:35	55.3	55.3	55.3	30	24.4	1	4	315	0.00	30.002 
18:40	55.6	55.6	55.6	31	25.5	1	4	270	0.00	30.002 
18:45	55.3	55.3	55.3	29	23.6	1	3	338	0.00	30.004 
18:50	55.3	55.3	55.3	31	25.2	1	4	315	0.00	30.004 
18:55	55.1	55.1	55.1	30	24.2	1	4	315	0.00	30.004 
19:00	54.8	54.8	54.8	31	24.8	0	2	338	0.00	30.007 
19:05	54.5	54.5	54.5	31	24.5	1	2	338	0.00	30.007 
19:10	54.2	54.2	54.2	31	24.2	1	3	315	0.00	30.007 
19:15	53.9	53.9	53.9	31	24.0	0	2	315	0.00	30.012 
19:20	53.6	53.6	53.6	32	24.5	0	2	315	0.00	30.012 
19:25	53.5	53.5	53.5	33	25.1	0	1	315	0.00	30.012 
19:30	53.3	53.3	53.3	34	25.7	0	1	315	0.00	30.017 
19:35	53.2	53.2	53.2	34	25.6	0	1	315	0.00	30.017 
19:40	53.1	53.1	53.1	35	26.2	0	2	315	0.00	30.017 
19:45	53.1	53.1	53.1	35	26.2	0	1	315	0.00	30.019 
19:50	52.9	52.9	52.9	35	26.0	0	1	315	0.00	30.019 
19:55	52.8	52.8	52.8	36	26.6	0	1	315	0.00	30.019 
20:00	52.6	52.6	52.6	36	26.4	0	1	315	0.00	30.017 
20:05	52.6	52.6	52.6	36	26.4	0	1	315	0.00	30.017 
20:10	52.5	52.5	52.5	37	27.0	0	1	315	0.00	30.017 
20:15	52.3	52.3	52.3	37	26.8	0	1	315	0.00	30.023 
20:20	52.2	52.2	52.2	37	26.7	0	1	315	0.00	30.023 
20:25	52.0	52.0	52.0	38	27.2	0	1	315	0.00	30.023 
20:30	51.9	51.9	51.9	38	27.1	0	1	315	0.00	30.024 
20:35	51.6	51.6	51.6	38	26.8	0	1	315	0.00	30.024 
20:40	51.4	51.4	51.4	38	26.7	0	1	315	0.00	30.024 
20:45	51.3	51.3	51.3	39	27.2	0	1	315	0.00	30.033 
20:50	51.1	51.1	51.1	39	27.0	0	1	315	0.00	30.033 
20:55	51.1	51.1	51.1	39	27.0	0	1	315	0.00	30.033 
21:00	51.0	51.0	51.0	39	26.9	0	1	315	0.00	30.038 
21:05	50.8	50.8	50.8	40	27.4	0	0	---	0.00	30.038 
21:10	50.5	50.5	50.5	40	27.1	0	0	---	0.00	30.038 
21:15	50.4	50.4	50.4	40	27.0	0	1	315	0.00	30.048 
21:20	50.1	50.1	50.1	40	26.7	0	0	---	0.00	30.048 
21:25	49.9	49.9	49.9	41	27.1	0	0	---	0.00	30.048 
21:30	49.6	49.6	49.6	42	27.5	0	0	---	0.00	30.050 
21:35	49.4	49.4	49.4	42	27.3	0	0	---	0.00	30.050 
21:40	49.2	49.2	49.2	42	27.1	0	1	315	0.00	30.050 
21:45	49.1	49.1	49.1	43	27.6	0	1	315	0.00	30.056 
21:50	48.9	48.9	48.9	43	27.4	0	0	---	0.00	30.056 
21:55	48.9	48.9	48.9	43	27.4	0	0	---	0.00	30.056 
22:00	48.8	48.8	48.8	44	27.9	0	0	---	0.00	30.064 
22:05	48.5	48.5	48.5	45	28.1	0	0	---	0.00	30.064 
22:10	48.2	48.2	48.2	45	27.9	0	0	---	0.00	30.064 
22:15	48.2	48.2	48.2	45	27.9	0	0	---	0.00	30.067 
22:20	48.0	48.0	48.0	45	27.7	0	0	---	0.00	30.067 
22:25	47.9	47.9	47.9	46	28.1	0	0	---	0.00	30.067 
22:30	47.7	47.7	47.7	46	27.9	0	0	---	0.00	30.069 
22:35	47.6	47.6	47.6	46	27.9	0	0	---	0.00	30.069 
22:40	47.3	47.3	47.3	47	28.1	0	0	---	0.00	30.069 
22:45	47.0	47.0	47.0	48	28.3	0	0	---	0.00	30.069 
22:50	46.5	46.5	46.5	49	28.4	0	0	---	0.00	30.069 
22:55	46.1	46.1	46.1	50	28.5	0	0	---	0.00	30.069 
23:00	45.8	45.8	45.8	50	28.2	0	0	---	0.00	30.069 
23:05	45.4	45.4	45.4	52	28.8	0	0	---	0.00	30.069 
23:10	45.1	45.1	45.1	53	29.0	0	0	---	0.00	30.069 
23:15	44.6	44.6	44.6	53	28.5	0	0	---	0.00	30.068 
23:20	44.3	44.3	44.3	53	28.3	0	0	---	0.00	30.068 
23:25	44.1	44.1	44.1	54	28.5	0	0	---	0.00	30.068 
23:30	43.8	43.8	43.8	54	28.3	0	0	---	0.00	30.066 
23:35	43.6	43.6	43.6	54	28.1	0	0	---	0.00	30.066 
23:40	43.5	43.5	43.5	56	28.9	0	0	---	0.00	30.066 
23:45	43.3	43.3	43.3	56	28.7	0	0	---	0.00	30.065 
23:50	43.2	43.2	43.2	56	28.6	0	0	---	0.00	30.065 
23:55	43.3	43.3	43.3	56	28.7	0	0	---	0.00	30.065 

CoCoRaHS
IN-AL-39
A2 Web Hosting
Creative Commons License
GoDaddy
search engine by freefind advanced

loaded 2018-11-18 12:01:12 • last modified 2010-11-18 10:43:29
Privacy PolicyDisclaimer
• wx.awcolley.com is powered by PmWiki v.2002016 •
• all content (unless otherwise noted) © 2018 A W Colley